Time;durP1;ratioP1;P1;durP2;ratioP2;P2;SDS_P1;SDS_P2;PMS_P1;PMS_P2;Temp;Humidity;BMP_temperature;BMP_pressure;BME280_temperature;BME280_humidity;BME280_pressure;Samples;Min_cycle;Max_cycle;Signal;HPM_P1;HPM_P2
2022/09/30 00:00:56;;;;;;;9.93;8.93;;;;;;;;;;5055818;28;20478;-72
2022/09/30 00:03:22;;;;;;;9.30;8.40;;;;;;;;;;5054564;28;20036;-74
2022/09/30 00:05:54;;;;;;;11.40;8.80;;;;;;;;;;5055807;28;20025;-72
2022/09/30 00:08:19;;;;;;;9.88;8.82;;;;;;;;;;5056054;28;20071;-71
2022/09/30 00:10:45;;;;;;;12.52;9.02;;;;;;;;;;5055485;28;20110;-71
2022/09/30 00:13:10;;;;;;;10.02;8.75;;;;;;;;;;5055836;28;20029;-71
2022/09/30 00:15:36;;;;;;;9.55;8.65;;;;;;;;;;5055631;28;20366;-71
2022/09/30 00:18:01;;;;;;;10.95;8.60;;;;;;;;;;5055791;28;20037;-71
2022/09/30 00:20:26;;;;;;;9.55;8.57;;;;;;;;;;5055691;28;20418;-71
2022/09/30 00:22:52;;;;;;;12.55;9.00;;;;;;;;;;5055643;28;20056;-71
2022/09/30 00:25:17;;;;;;;11.23;8.57;;;;;;;;;;5055516;28;20021;-71
2022/09/30 00:27:43;;;;;;;11.05;9.05;;;;;;;;;;5053296;28;20048;-70
2022/09/30 00:30:08;;;;;;;10.07;9.05;;;;;;;;;;5055508;28;20041;-70
2022/09/30 00:32:34;;;;;;;10.13;9.02;;;;;;;;;;5055191;28;20087;-71
2022/09/30 00:34:59;;;;;;;9.77;8.73;;;;;;;;;;5055069;28;20025;-71
2022/09/30 00:37:24;;;;;;;11.52;9.35;;;;;;;;;;5055434;28;20025;-71
2022/09/30 00:39:50;;;;;;;11.32;9.18;;;;;;;;;;5054793;28;20341;-70
2022/09/30 00:42:18;;;;;;;10.43;9.32;;;;;;;;;;5055245;28;20040;-70
2022/09/30 00:44:53;;;;;;;10.73;9.63;;;;;;;;;;5054848;28;20028;-70
2022/09/30 00:47:37;;;;;;;11.27;9.23;;;;;;;;;;5054975;28;20040;-71
2022/09/30 00:50:13;;;;;;;10.57;9.43;;;;;;;;;;5065722;22;20057;-70
2022/09/30 00:52:38;;;;;;;10.48;9.38;;;;;;;;;;5054123;28;20036;-71
2022/09/30 00:55:07;;;;;;;12.90;10.40;;;;;;;;;;5054799;28;20025;-70
2022/09/30 00:57:33;;;;;;;15.02;11.05;;;;;;;;;;5054578;28;20390;-69
2022/09/30 00:59:58;;;;;;;14.98;11.35;;;;;;;;;;5054711;28;20021;-71
2022/09/30 01:02:24;;;;;;;15.07;11.32;;;;;;;;;;5054864;28;20460;-70
2022/09/30 01:04:49;;;;;;;15.20;12.07;;;;;;;;;;5036687;28;20051;-71
2022/09/30 01:07:15;;;;;;;13.55;11.70;;;;;;;;;;5054639;28;20029;-71
2022/09/30 01:09:41;;;;;;;16.80;11.35;;;;;;;;;;5053545;28;20029;-70
2022/09/30 01:12:09;;;;;;;14.32;11.32;;;;;;;;;;5054594;28;20025;-71
2022/09/30 01:14:36;;;;;;;15.75;11.23;;;;;;;;;;5054738;28;20432;-71
2022/09/30 01:17:01;;;;;;;13.73;11.48;;;;;;;;;;5054508;28;20025;-70
2022/09/30 01:19:44;;;;;;;15.55;11.43;;;;;;;;;;5054595;28;20033;-71
2022/09/30 01:22:28;;;;;;;12.65;11.30;;;;;;;;;;5054416;28;20099;-71
2022/09/30 01:25:03;;;;;;;13.43;10.93;;;;;;;;;;5036482;28;20055;-70
2022/09/30 01:27:34;;;;;;;14.20;10.85;;;;;;;;;;5053401;28;20074;-71
2022/09/30 01:30:19;;;;;;;15.38;12.13;;;;;;;;;;5036605;28;20028;-71
2022/09/30 01:32:56;;;;;;;13.93;11.48;;;;;;;;;;5054030;28;20029;-71
2022/09/30 01:35:45;;;;;;;14.55;11.98;;;;;;;;;;5054277;28;20028;-72
2022/09/30 01:38:19;;;;;;;15.70;12.50;;;;;;;;;;5043519;28;20041;-71
2022/09/30 01:40:49;;;;;;;16.80;12.30;;;;;;;;;;5054078;28;20045;-72
2022/09/30 01:43:18;;;;;;;15.98;13.00;;;;;;;;;;5054045;28;20471;-73
2022/09/30 01:45:48;;;;;;;14.20;12.35;;;;;;;;;;5053004;28;20052;-73
2022/09/30 01:48:22;;;;;;;16.27;11.95;;;;;;;;;;5054305;28;20028;-73
2022/09/30 01:51:06;;;;;;;15.23;12.32;;;;;;;;;;5053265;28;20475;-73
2022/09/30 01:53:58;;;;;;;15.13;12.02;;;;;;;;;;5035760;28;20021;-73
2022/09/30 01:56:23;;;;;;;15.27;11.70;;;;;;;;;;5033183;28;20348;-73
2022/09/30 01:58:58;;;;;;;15.38;12.27;;;;;;;;;;5036085;28;20028;-73
2022/09/30 02:01:30;;;;;;;14.95;11.93;;;;;;;;;;5056076;28;20044;-73
2022/09/30 02:03:58;;;;;;;16.52;12.35;;;;;;;;;;5058004;28;20405;-73
2022/09/30 02:06:31;;;;;;;13.93;11.48;;;;;;;;;;5058126;28;20440;-73
2022/09/30 02:09:09;;;;;;;14.40;11.60;;;;;;;;;;5057999;28;20047;-73
2022/09/30 02:11:36;;;;;;;12.40;10.20;;;;;;;;;;5057622;28;20029;-72
2022/09/30 02:14:05;;;;;;;13.32;11.50;;;;;;;;;;5057694;28;20016;-74
2022/09/30 02:16:38;;;;;;;15.52;11.95;;;;;;;;;;5056139;28;20068;-71
2022/09/30 02:19:10;;;;;;;14.50;11.82;;;;;;;;;;5066438;22;20427;-71
2022/09/30 02:21:37;;;;;;;12.75;11.35;;;;;;;;;;5056649;28;20029;-73
2022/09/30 02:24:05;;;;;;;12.63;10.55;;;;;;;;;;5057707;28;20013;-71
2022/09/30 02:26:33;;;;;;;14.05;11.48;;;;;;;;;;5057696;28;20475;-71
2022/09/30 02:29:02;;;;;;;13.38;10.68;;;;;;;;;;5057400;28;20070;-71
2022/09/30 02:31:29;;;;;;;14.97;11.20;;;;;;;;;;5055947;28;20025;-71
2022/09/30 02:34:15;;;;;;;16.20;11.60;;;;;;;;;;5057451;28;20017;-72
2022/09/30 02:36:46;;;;;;;15.52;11.30;;;;;;;;;;5057773;28;20024;-71
2022/09/30 02:39:30;;;;;;;13.40;11.07;;;;;;;;;;5057660;28;20040;-72
2022/09/30 02:41:59;;;;;;;15.70;11.68;;;;;;;;;;5057321;28;20029;-73
2022/09/30 02:44:25;;;;;;;14.93;10.80;;;;;;;;;;5057285;28;20028;-73
2022/09/30 02:47:09;;;;;;;11.68;10.13;;;;;;;;;;5057446;28;20041;-72
2022/09/30 02:49:37;;;;;;;11.75;10.30;;;;;;;;;;5057226;28;20372;-72
2022/09/30 02:52:06;;;;;;;10.48;9.27;;;;;;;;;;5057177;28;20452;-70
2022/09/30 02:54:35;;;;;;;10.95;8.25;;;;;;;;;;5056713;28;20033;-71
2022/09/30 02:57:11;;;;;;;12.33;8.83;;;;;;;;;;5057059;28;20021;-71
2022/09/30 02:59:38;;;;;;;11.07;9.15;;;;;;;;;;5057127;28;20029;-71
2022/09/30 03:02:03;;;;;;;13.23;8.82;;;;;;;;;;5057041;28;20047;-72
2022/09/30 03:04:32;;;;;;;10.30;9.20;;;;;;;;;;5057048;28;20460;-72
2022/09/30 03:06:58;;;;;;;12.30;9.05;;;;;;;;;;5055606;28;20463;-72
2022/09/30 03:09:25;;;;;;;11.85;9.18;;;;;;;;;;5056710;28;20411;-73
2022/09/30 03:11:52;;;;;;;11.80;9.93;;;;;;;;;;5038670;28;20013;-73
2022/09/30 03:14:23;;;;;;;12.40;9.20;;;;;;;;;;5056652;28;20027;-73
2022/09/30 03:17:00;;;;;;;11.35;8.95;;;;;;;;;;5056648;28;20020;-73
2022/09/30 03:19:33;;;;;;;10.75;8.57;;;;;;;;;;5056478;28;20124;-73
2022/09/30 03:22:11;;;;;;;11.70;8.68;;;;;;;;;;5056625;28;20021;-72
2022/09/30 03:24:45;;;;;;;9.30;8.23;;;;;;;;;;5056749;28;20033;-72
2022/09/30 03:27:16;;;;;;;9.50;8.50;;;;;;;;;;5056590;28;20120;-72
2022/09/30 03:29:41;;;;;;;10.25;8.60;;;;;;;;;;5056086;28;20041;-72
2022/09/30 03:32:26;;;;;;;8.57;7.25;;;;;;;;;;5055308;28;20028;-71
2022/09/30 03:35:13;;;;;;;8.27;7.47;;;;;;;;;;5056439;28;20029;-71
2022/09/30 03:37:49;;;;;;;12.35;8.60;;;;;;;;;;5038465;28;20352;-72
2022/09/30 03:40:34;;;;;;;10.75;8.68;;;;;;;;;;5056321;28;20037;-71
2022/09/30 03:43:15;;;;;;;10.93;8.55;;;;;;;;;;5037741;28;20083;-71
2022/09/30 03:45:46;;;;;;;10.05;8.45;;;;;;;;;;5038109;28;20037;-72
2022/09/30 03:48:12;;;;;;;10.52;8.68;;;;;;;;;;5038635;28;20443;-72
2022/09/30 03:50:39;;;;;;;9.63;8.32;;;;;;;;;;5055966;28;20031;-72
2022/09/30 03:53:09;;;;;;;10.65;8.23;;;;;;;;;;5056051;28;20024;-72
2022/09/30 03:55:42;;;;;;;10.27;8.30;;;;;;;;;;5056227;28;20064;-73
2022/09/30 03:58:07;;;;;;;8.70;7.60;;;;;;;;;;5055807;28;20451;-72
2022/09/30 04:00:33;;;;;;;8.50;7.70;;;;;;;;;;5054197;28;20116;-72
2022/09/30 04:02:58;;;;;;;10.38;7.95;;;;;;;;;;5055849;28;20044;-72
2022/09/30 04:05:24;;;;;;;9.48;7.65;;;;;;;;;;5054490;28;20025;-73
2022/09/30 04:07:49;;;;;;;10.68;9.05;;;;;;;;;;5056021;28;20090;-72
2022/09/30 04:10:15;;;;;;;8.98;8.07;;;;;;;;;;5054504;28;20029;-72
2022/09/30 04:12:40;;;;;;;11.50;8.10;;;;;;;;;;5054870;28;20108;-72
2022/09/30 04:15:06;;;;;;;13.30;9.68;;;;;;;;;;5053306;28;20055;-75
2022/09/30 04:17:31;;;;;;;10.70;7.90;;;;;;;;;;5054694;28;20021;-73
2022/09/30 04:19:57;;;;;;;50.85;33.40;;;;;;;;;;5054818;28;20483;-73
2022/09/30 04:22:22;;;;;;;86.72;58.58;;;;;;;;;;5054140;28;20098;-73
2022/09/30 04:24:48;;;;;;;17.42;14.13;;;;;;;;;;5053415;28;20037;-71
2022/09/30 04:27:13;;;;;;;8.57;7.78;;;;;;;;;;5052829;28;20032;-73
2022/09/30 04:29:39;;;;;;;13.60;12.30;;;;;;;;;;5054027;28;20406;-73
2022/09/30 04:32:04;;;;;;;12.65;11.45;;;;;;;;;;5053820;28;20032;-72
2022/09/30 04:34:30;;;;;;;13.25;12.05;;;;;;;;;;5034500;28;20116;-72
2022/09/30 04:36:55;;;;;;;11.90;9.35;;;;;;;;;;5052164;28;20017;-72
2022/09/30 04:39:20;;;;;;;7.60;6.85;;;;;;;;;;5052630;28;20100;-71
2022/09/30 04:41:46;;;;;;;10.38;9.48;;;;;;;;;;5025691;28;20029;-71
2022/09/30 04:44:12;;;;;;;9.80;8.88;;;;;;;;;;5051872;28;20025;-74
2022/09/30 04:46:38;;;;;;;9.45;8.43;;;;;;;;;;5033275;28;20361;-72
2022/09/30 04:49:04;;;;;;;9.35;6.53;;;;;;;;;;5033696;28;20022;-72
2022/09/30 04:51:29;;;;;;;7.85;7.00;;;;;;;;;;5033469;28;20048;-72
2022/09/30 04:53:54;;;;;;;9.82;7.05;;;;;;;;;;5033399;28;20463;-73
2022/09/30 04:56:21;;;;;;;8.90;7.25;;;;;;;;;;5033131;28;20032;-73
2022/09/30 04:58:47;;;;;;;7.65;5.97;;;;;;;;;;5033337;28;20021;-73
2022/09/30 05:01:13;;;;;;;7.03;6.32;;;;;;;;;;5033410;28;20472;-72
2022/09/30 05:03:39;;;;;;;10.00;6.20;;;;;;;;;;5033277;28;20014;-70
2022/09/30 05:06:04;;;;;;;7.57;6.88;;;;;;;;;;5033051;28;20075;-72
2022/09/30 05:08:32;;;;;;;8.18;7.00;;;;;;;;;;5033432;28;20025;-72
2022/09/30 05:10:59;;;;;;;6.60;5.95;;;;;;;;;;5032848;28;20038;-71
2022/09/30 05:13:30;;;;;;;8.27;5.75;;;;;;;;;;5033089;28;20069;-73
2022/09/30 05:15:56;;;;;;;6.47;5.88;;;;;;;;;;5033078;28;20052;-73
2022/09/30 05:18:21;;;;;;;7.03;6.40;;;;;;;;;;5015097;28;20038;-73
2022/09/30 05:20:48;;;;;;;7.38;6.70;;;;;;;;;;5032988;28;20346;-72
2022/09/30 05:23:13;;;;;;;8.48;6.93;;;;;;;;;;5032698;28;20495;-74
2022/09/30 05:25:38;;;;;;;9.43;8.32;;;;;;;;;;5032649;28;20036;-73
2022/09/30 05:28:04;;;;;;;9.00;7.38;;;;;;;;;;5032828;28;20064;-73
2022/09/30 05:30:29;;;;;;;47.20;31.42;;;;;;;;;;5032748;28;20101;-73
2022/09/30 05:32:54;;;;;;;8.55;7.22;;;;;;;;;;5033364;28;20022;-73
2022/09/30 05:35:20;;;;;;;43.90;26.23;;;;;;;;;;5031155;28;20567;-71
2022/09/30 05:37:45;;;;;;;15.48;10.63;;;;;;;;;;5031297;28;20100;-72
2022/09/30 05:40:11;;;;;;;33.38;20.98;;;;;;;;;;5032624;28;20029;-73
2022/09/30 05:42:36;;;;;;;27.98;19.17;;;;;;;;;;5032144;28;20032;-73
2022/09/30 05:45:02;;;;;;;12.20;9.63;;;;;;;;;;5032897;28;20029;-73
2022/09/30 05:47:28;;;;;;;23.23;14.50;;;;;;;;;;5032619;28;20053;-72
2022/09/30 05:49:53;;;;;;;13.65;9.82;;;;;;;;;;5032400;28;20435;-72
2022/09/30 05:52:20;;;;;;;9.20;7.40;;;;;;;;;;5032508;28;20025;-72
2022/09/30 05:54:45;;;;;;;6.90;5.90;;;;;;;;;;5032522;28;20522;-73
2022/09/30 05:57:10;;;;;;;9.00;7.18;;;;;;;;;;5032477;28;20018;-73
2022/09/30 05:59:36;;;;;;;6.20;5.70;;;;;;;;;;5032503;28;20041;-72
2022/09/30 06:02:02;;;;;;;7.53;6.88;;;;;;;;;;5032431;28;20097;-73
2022/09/30 06:04:27;;;;;;;9.43;8.38;;;;;;;;;;5032122;28;20033;-72
2022/09/30 06:06:53;;;;;;;7.07;6.47;;;;;;;;;;5032754;28;20541;-73
2022/09/30 06:09:18;;;;;;;13.82;9.85;;;;;;;;;;5033482;28;20033;-72
2022/09/30 06:11:44;;;;;;;7.88;7.05;;;;;;;;;;5033469;28;20464;-72
2022/09/30 06:14:09;;;;;;;9.38;8.40;;;;;;;;;;5032176;28;20040;-71
2022/09/30 06:16:35;;;;;;;7.82;7.13;;;;;;;;;;5034231;28;20097;-72
2022/09/30 06:19:00;;;;;;;8.57;7.68;;;;;;;;;;5033513;28;20149;-71
2022/09/30 06:21:27;;;;;;;7.43;6.82;;;;;;;;;;5033494;28;20025;-71
2022/09/30 06:23:53;;;;;;;7.70;7.05;;;;;;;;;;5033787;28;20088;-72
2022/09/30 06:26:19;;;;;;;9.13;8.18;;;;;;;;;;5033466;28;20461;-71
2022/09/30 06:28:44;;;;;;;9.05;7.60;;;;;;;;;;5033574;28;20026;-72
2022/09/30 06:31:10;;;;;;;8.32;7.68;;;;;;;;;;5032018;28;20029;-71
2022/09/30 06:33:35;;;;;;;9.45;8.55;;;;;;;;;;5033220;28;20070;-72
2022/09/30 06:36:03;;;;;;;8.10;7.40;;;;;;;;;;5033228;28;20025;-72
2022/09/30 06:38:29;;;;;;;7.68;6.65;;;;;;;;;;5033281;28;20033;-72
2022/09/30 06:40:57;;;;;;;9.25;8.25;;;;;;;;;;5032793;28;20021;-72
2022/09/30 06:43:22;;;;;;;11.30;8.05;;;;;;;;;;5031828;28;20033;-72
2022/09/30 06:45:50;;;;;;;8.52;7.53;;;;;;;;;;5033246;28;20044;-72
2022/09/30 06:48:16;;;;;;;9.73;7.80;;;;;;;;;;5036445;28;20047;-71
2022/09/30 06:50:41;;;;;;;8.98;7.70;;;;;;;;;;5036807;28;20108;-71
2022/09/30 06:53:07;;;;;;;7.57;6.72;;;;;;;;;;5036816;28;20034;-72
2022/09/30 06:55:37;;;;;;;10.05;8.43;;;;;;;;;;5036708;28;20022;-72
2022/09/30 06:58:03;;;;;;;9.93;8.38;;;;;;;;;;5036647;28;20026;-71
2022/09/30 07:00:28;;;;;;;8.10;7.40;;;;;;;;;;5036628;28;20072;-72
2022/09/30 07:02:55;;;;;;;11.63;8.20;;;;;;;;;;5035352;28;20120;-72
2022/09/30 07:05:21;;;;;;;8.52;7.43;;;;;;;;;;5036563;28;20030;-71
2022/09/30 07:07:48;;;;;;;13.23;8.98;;;;;;;;;;5036724;28;20025;-72
2022/09/30 07:10:13;;;;;;;10.52;7.65;;;;;;;;;;5036459;28;20349;-72
2022/09/30 07:12:39;;;;;;;10.27;8.07;;;;;;;;;;5040875;28;20100;-72
2022/09/30 07:15:05;;;;;;;9.18;7.38;;;;;;;;;;5056449;28;20337;-72
2022/09/30 07:17:31;;;;;;;20.55;15.88;;;;;;;;;;5038456;28;20166;-71
2022/09/30 07:19:57;;;;;;;90.57;53.75;;;;;;;;;;5038661;28;20124;-71
2022/09/30 07:22:26;;;;;;;69.15;43.88;;;;;;;;;;5056467;28;20401;-71
2022/09/30 07:24:51;;;;;;;31.63;21.75;;;;;;;;;;5056372;28;20394;-72
2022/09/30 07:27:18;;;;;;;13.48;9.20;;;;;;;;;;5056531;28;20039;-71
2022/09/30 07:29:44;;;;;;;37.75;28.50;;;;;;;;;;5056272;28;20029;-72
2022/09/30 07:32:10;;;;;;;14.90;13.40;;;;;;;;;;5056226;28;20025;-72
2022/09/30 07:34:36;;;;;;;14.30;13.00;;;;;;;;;;5038101;28;20020;-71
2022/09/30 07:37:03;;;;;;;10.38;9.27;;;;;;;;;;5056593;28;20025;-72
2022/09/30 07:39:28;;;;;;;11.23;8.38;;;;;;;;;;5055156;28;20053;-72
2022/09/30 07:41:54;;;;;;;11.15;9.95;;;;;;;;;;5055945;28;20159;-72
2022/09/30 07:44:19;;;;;;;8.88;8.07;;;;;;;;;;5056164;28;20044;-71
2022/09/30 07:46:45;;;;;;;9.57;8.65;;;;;;;;;;5056002;28;20059;-72
2022/09/30 07:49:23;;;;;;;9.55;8.55;;;;;;;;;;5055839;28;20025;-72
2022/09/30 07:51:49;;;;;;;16.50;10.13;;;;;;;;;;5054726;28;20040;-71
2022/09/30 07:54:15;;;;;;;8.80;7.90;;;;;;;;;;5055812;28;20431;-72
2022/09/30 07:56:42;;;;;;;11.30;9.35;;;;;;;;;;5055254;28;20028;-71
2022/09/30 07:59:09;;;;;;;8.63;7.80;;;;;;;;;;5036036;28;20344;-71
2022/09/30 08:01:34;;;;;;;12.93;11.63;;;;;;;;;;5054153;28;20029;-71
2022/09/30 08:04:01;;;;;;;10.18;8.55;;;;;;;;;;5037350;28;20028;-71
2022/09/30 08:06:27;;;;;;;11.68;9.45;;;;;;;;;;5055387;28;20159;-72
2022/09/30 08:08:54;;;;;;;11.75;9.18;;;;;;;;;;5054687;28;20387;-71
2022/09/30 08:11:19;;;;;;;13.75;9.82;;;;;;;;;;5053555;28;20041;-72
2022/09/30 08:13:52;;;;;;;11.77;9.05;;;;;;;;;;5054950;28;20023;-72
2022/09/30 08:16:18;;;;;;;11.70;8.30;;;;;;;;;;5054575;28;20029;-71
2022/09/30 08:18:43;;;;;;;12.43;9.50;;;;;;;;;;5053464;28;20039;-71
2022/09/30 08:21:08;;;;;;;8.52;7.47;;;;;;;;;;5053953;28;20033;-72
2022/09/30 08:23:34;;;;;;;10.20;9.20;;;;;;;;;;5036264;28;20167;-72
2022/09/30 08:26:01;;;;;;;10.40;8.95;;;;;;;;;;5054542;28;20075;-71
2022/09/30 08:28:30;;;;;;;13.38;10.50;;;;;;;;;;5054187;28;20063;-72
2022/09/30 08:30:55;;;;;;;16.27;11.52;;;;;;;;;;5054420;28;20029;-71
2022/09/30 08:33:20;;;;;;;10.40;8.23;;;;;;;;;;5054493;28;20494;-71
2022/09/30 08:35:46;;;;;;;10.65;8.70;;;;;;;;;;5053925;28;20033;-71
2022/09/30 08:38:11;;;;;;;9.85;8.50;;;;;;;;;;5054090;28;20017;-71
2022/09/30 08:40:45;;;;;;;9.00;7.78;;;;;;;;;;5054628;28;20025;-71
2022/09/30 08:43:17;;;;;;;12.02;10.15;;;;;;;;;;5054705;28;20032;-71
2022/09/30 08:45:50;;;;;;;11.85;8.90;;;;;;;;;;5054307;28;20028;-71
2022/09/30 08:48:19;;;;;;;11.95;8.55;;;;;;;;;;5053264;28;20036;-70
2022/09/30 08:50:53;;;;;;;11.77;8.98;;;;;;;;;;5054417;28;20099;-72
2022/09/30 08:53:24;;;;;;;9.07;7.65;;;;;;;;;;5054187;28;20074;-71
2022/09/30 08:55:49;;;;;;;;;;;;;;;;;;5053794;28;20428;-71
2022/09/30 08:58:21;;;;;;;10.47;7.70;;;;;;;;;;5053066;28;19995;-71
2022/09/30 09:00:47;;;;;;;13.43;9.77;;;;;;;;;;5054228;28;20037;-71
2022/09/30 09:03:13;;;;;;;10.02;7.47;;;;;;;;;;5054246;28;20017;-70
2022/09/30 09:05:45;;;;;;;9.48;7.78;;;;;;;;;;5052730;28;20039;-70
2022/09/30 09:08:16;;;;;;;24.15;15.07;;;;;;;;;;5054117;28;20048;-70
2022/09/30 09:10:42;;;;;;;;;;;;;;;;;;5054071;28;20028;-71
2022/09/30 09:13:25;;;;;;;16.45;10.55;;;;;;;;;;5053086;28;20244;-70
2022/09/30 09:16:01;;;;;;;15.57;10.90;;;;;;;;;;5053341;28;20106;-71
2022/09/30 09:18:33;;;;;;;33.45;18.20;;;;;;;;;;5053745;28;20029;-71
2022/09/30 09:21:02;;;;;;;10.18;8.05;;;;;;;;;;5053906;28;20032;-70
2022/09/30 09:23:30;;;;;;;7.80;6.93;;;;;;;;;;5052052;28;20082;-71
2022/09/30 09:25:55;;;;;;;75.90;45.25;;;;;;;;;;5051980;28;20033;-71
2022/09/30 09:28:32;;;;;;;14.45;12.50;;;;;;;;;;5034424;28;20020;-70
2022/09/30 09:30:59;;;;;;;45.42;29.15;;;;;;;;;;5052053;28;20079;-70
2022/09/30 09:33:28;;;;;;;63.15;36.80;;;;;;;;;;5053498;28;20052;-70
2022/09/30 09:36:07;;;;;;;73.15;36.88;;;;;;;;;;5052789;28;20029;-70
2022/09/30 09:38:57;;;;;;;62.65;35.15;;;;;;;;;;5035745;28;20021;-70
2022/09/30 09:41:24;;;;;;;;;;;;;;;;;;5054123;28;20124;-71
2022/09/30 09:43:59;;;;;;;127.93;47.55;;;;;;;;;;5053549;28;20321;-70
2022/09/30 09:46:44;;;;;;;58.20;27.65;;;;;;;;;;5053492;28;20044;-70
2022/09/30 09:49:12;;;;;;;101.40;41.22;;;;;;;;;;5053570;28;20036;-70
2022/09/30 09:52:04;;;;;;;17.67;10.65;;;;;;;;;;5053368;28;20020;-69
2022/09/30 09:54:31;;;;;;;96.93;42.38;;;;;;;;;;5051905;28;20099;-70
2022/09/30 09:57:15;;;;;;;234.75;82.93;;;;;;;;;;5051775;28;20017;-71
2022/09/30 10:01:04;;;;;;;58.88;26.60;;;;;;;;;;5052305;28;20037;-70
2022/09/30 10:03:07;;;;;;;28.35;15.52;;;;;;;;;;5052213;28;20375;-70
2022/09/30 10:05:38;;;;;;;96.20;41.40;;;;;;;;;;5021014;28;20419;-70
2022/09/30 10:08:22;;;;;;;255.98;102.50;;;;;;;;;;5052206;28;20440;-71
2022/09/30 10:10:56;;;;;;;161.82;73.97;;;;;;;;;;5052157;28;20037;-70
2022/09/30 10:13:23;;;;;;;170.55;81.70;;;;;;;;;;5051960;28;20379;-71
2022/09/30 10:15:53;;;;;;;109.28;50.03;;;;;;;;;;5050296;28;20017;-70
2022/09/30 10:18:37;;;;;;;120.05;52.92;;;;;;;;;;5051894;28;20037;-73
2022/09/30 10:21:28;;;;;;;89.55;42.40;;;;;;;;;;5052098;28;20078;-65
2022/09/30 10:23:56;;;;;;;111.15;63.63;;;;;;;;;;5052289;28;20045;-72
2022/09/30 10:26:23;;;;;;;63.13;33.53;;;;;;;;;;5056107;28;20031;-70
2022/09/30 10:28:50;;;;;;;31.10;19.25;;;;;;;;;;5056115;28;20083;-69
2022/09/30 10:31:15;;;;;;;21.13;14.40;;;;;;;;;;5054708;28;20056;-69
2022/09/30 10:33:54;;;;;;;64.97;40.92;;;;;;;;;;5055625;28;20072;-69
2022/09/30 10:36:21;;;;;;;34.90;22.45;;;;;;;;;;5055340;28;20132;-68
2022/09/30 10:38:46;;;;;;;9.88;8.43;;;;;;;;;;5055475;28;20020;-69
2022/09/30 10:41:12;;;;;;;31.48;17.92;;;;;;;;;;5055421;28;20041;-70
2022/09/30 10:43:41;;;;;;;25.33;15.25;;;;;;;;;;5055701;28;20029;-69
2022/09/30 10:46:07;;;;;;;25.37;14.83;;;;;;;;;;5055889;28;20386;-69
2022/09/30 10:48:34;;;;;;;77.30;39.50;;;;;;;;;;5055695;28;20025;-68
2022/09/30 10:51:00;;;;;;;17.92;10.52;;;;;;;;;;5055655;28;20485;-68
2022/09/30 10:53:28;;;;;;;7.22;5.20;;;;;;;;;;5056514;28;20021;-69
2022/09/30 10:55:55;;;;;;;7.40;5.97;;;;;;;;;;5056037;28;20390;-68
2022/09/30 10:58:20;;;;;;;22.00;13.88;;;;;;;;;;5038272;28;20015;-68
2022/09/30 11:00:48;;;;;;;25.52;14.93;;;;;;;;;;5056546;28;20418;-67
2022/09/30 11:03:15;;;;;;;21.77;14.95;;;;;;;;;;5055998;28;20025;-65
2022/09/30 11:05:47;;;;;;;72.13;42.70;;;;;;;;;;5055065;28;20040;-67
2022/09/30 11:08:15;;;;;;;59.60;35.40;;;;;;;;;;5054542;28;20060;-68
2022/09/30 11:11:00;;;;;;;36.88;22.80;;;;;;;;;;5054935;28;20074;-69
2022/09/30 11:13:33;;;;;;;10.35;8.15;;;;;;;;;;5038333;28;20465;-68
2022/09/30 11:16:05;;;;;;;42.20;24.58;;;;;;;;;;5056312;28;20024;-68
2022/09/30 11:18:36;;;;;;;9.25;5.95;;;;;;;;;;5056098;28;20041;-68
2022/09/30 11:21:11;;;;;;;26.10;15.77;;;;;;;;;;5056221;28;20028;-68
2022/09/30 11:23:39;;;;;;;10.10;6.53;;;;;;;;;;5056526;28;20033;-68
2022/09/30 11:26:16;;;;;;;61.63;34.90;;;;;;;;;;5038217;28;20454;-68
2022/09/30 11:28:51;;;;;;;19.25;12.75;;;;;;;;;;5038270;28;20041;-67
2022/09/30 11:31:25;;;;;;;14.10;10.80;;;;;;;;;;5055998;28;20559;-68
2022/09/30 11:33:51;;;;;;;17.67;13.15;;;;;;;;;;5055928;28;20021;-68
2022/09/30 11:36:22;;;;;;;7.78;6.40;;;;;;;;;;5056097;28;20150;-68
2022/09/30 11:38:55;;;;;;;10.32;8.25;;;;;;;;;;5055978;28;20033;-68
2022/09/30 11:41:25;;;;;;;18.02;13.82;;;;;;;;;;5055945;28;20029;-68
2022/09/30 11:43:51;;;;;;;;;;;;;;;;;;5056375;28;20083;-68
2022/09/30 11:46:34;;;;;;;6.80;6.22;;;;;;;;;;5056112;28;19908;-68
2022/09/30 11:49:14;;;;;;;7.93;7.13;;;;;;;;;;5054484;28;20039;-68
2022/09/30 11:51:49;;;;;;;16.85;13.93;;;;;;;;;;5055680;28;20025;-68
2022/09/30 11:54:25;;;;;;;7.25;6.55;;;;;;;;;;5055667;28;20029;-68
2022/09/30 11:57:00;;;;;;;7.93;7.13;;;;;;;;;;5055697;28;20029;-67
2022/09/30 11:59:28;;;;;;;7.40;6.70;;;;;;;;;;5055525;28;20094;-68
2022/09/30 12:01:56;;;;;;;5.80;5.30;;;;;;;;;;5055488;28;20021;-67
2022/09/30 12:04:24;;;;;;;3.75;3.45;;;;;;;;;;5055522;28;20444;-68
2022/09/30 12:06:55;;;;;;;5.05;4.65;;;;;;;;;;5055466;28;20013;-67
2022/09/30 12:09:39;;;;;;;5.40;4.15;;;;;;;;;;5055302;28;20120;-68
2022/09/30 12:12:13;;;;;;;8.55;7.32;;;;;;;;;;5055314;28;20036;-68
2022/09/30 12:14:44;;;;;;;49.38;22.83;;;;;;;;;;5055299;28;20032;-68
2022/09/30 12:17:25;;;;;;;51.92;22.27;;;;;;;;;;5037271;28;20067;-66
2022/09/30 12:19:52;;;;;;;9.68;6.70;;;;;;;;;;5055024;28;20075;-68
2022/09/30 12:22:25;;;;;;;3.88;3.67;;;;;;;;;;5055208;28;20036;-68
2022/09/30 12:24:50;;;;;;;3.83;3.53;;;;;;;;;;5055111;28;20033;-70
2022/09/30 12:27:15;;;;;;;3.38;3.08;;;;;;;;;;5055059;28;20039;-70
2022/09/30 12:32:48;;;;;;;5.13;4.32;;;;;;;;;;5055018;28;20035;-70
2022/09/30 12:35:18;;;;;;;37.88;22.35;;;;;;;;;;5054889;28;20028;-71
2022/09/30 12:37:59;;;;;;;11.98;10.77;;;;;;;;;;5054987;28;20033;-70
2022/09/30 12:40:31;;;;;;;5.75;5.03;;;;;;;;;;5054840;28;20399;-70
2022/09/30 12:43:03;;;;;;;4.18;3.88;;;;;;;;;;5054791;28;20033;-70
2022/09/30 12:45:37;;;;;;;4.85;4.45;;;;;;;;;;5052819;28;20526;-70
2022/09/30 12:48:07;;;;;;;4.38;3.75;;;;;;;;;;5054658;28;20108;-70
2022/09/30 12:50:44;;;;;;;4.38;3.65;;;;;;;;;;5054509;28;20075;-70
2022/09/30 12:53:15;;;;;;;10.20;8.10;;;;;;;;;;5054532;28;20040;-71
2022/09/30 12:55:41;;;;;;;9.32;8.43;;;;;;;;;;5054571;28;20438;-70
2022/09/30 12:58:16;;;;;;;14.00;9.32;;;;;;;;;;5036593;28;20048;-71
2022/09/30 13:00:57;;;;;;;5.25;4.75;;;;;;;;;;5054426;28;20479;-70
2022/09/30 13:03:23;;;;;;;12.52;8.25;;;;;;;;;;5054288;28;20037;-70
2022/09/30 13:05:55;;;;;;;4.57;4.18;;;;;;;;;;5054279;28;20024;-71
2022/09/30 13:08:20;;;;;;;50.88;26.33;;;;;;;;;;5054376;28;20025;-69
2022/09/30 13:10:51;;;;;;;21.05;12.45;;;;;;;;;;5036279;28;20029;-70
2022/09/30 13:13:17;;;;;;;3.20;2.92;;;;;;;;;;5054248;28;20029;-70
2022/09/30 13:15:43;;;;;;;13.35;10.35;;;;;;;;;;5053498;28;20111;-70
2022/09/30 13:18:18;;;;;;;6.32;5.70;;;;;;;;;;5053341;28;20483;-71
2022/09/30 13:20:56;;;;;;;3.45;3.15;;;;;;;;;;5053594;28;20024;-70
2022/09/30 13:23:37;;;;;;;2.25;2.13;;;;;;;;;;5053750;28;20044;-70
2022/09/30 13:26:03;;;;;;;2.40;2.28;;;;;;;;;;5045579;28;20047;-71
2022/09/30 13:28:35;;;;;;;3.03;2.20;;;;;;;;;;5050637;28;20052;-70
2022/09/30 13:31:12;;;;;;;2.50;2.30;;;;;;;;;;5050208;28;20043;-70
2022/09/30 13:33:41;;;;;;;2.35;2.17;;;;;;;;;;5050422;28;20628;-70
2022/09/30 13:36:15;;;;;;;2.28;2.17;;;;;;;;;;5049064;28;20021;-70
2022/09/30 13:38:41;;;;;;;1.90;1.80;;;;;;;;;;5050478;28;20037;-70
2022/09/30 13:41:06;;;;;;;20.70;11.65;;;;;;;;;;5050282;28;20024;-70
2022/09/30 13:43:38;;;;;;;17.50;11.00;;;;;;;;;;5050104;28;20075;-70
2022/09/30 13:46:06;;;;;;;6.32;5.22;;;;;;;;;;5050158;28;20133;-72
2022/09/30 13:48:32;;;;;;;3.25;2.92;;;;;;;;;;5050070;28;20060;-70
2022/09/30 13:51:02;;;;;;;4.97;4.47;;;;;;;;;;5049159;28;20032;-70
2022/09/30 13:53:34;;;;;;;5.90;4.60;;;;;;;;;;5049181;28;20037;-70
2022/09/30 13:56:03;;;;;;;12.10;7.57;;;;;;;;;;5048441;28;20052;-70
2022/09/30 13:58:28;;;;;;;13.75;8.30;;;;;;;;;;5048751;28;20082;-71
2022/09/30 14:01:12;;;;;;;9.88;6.78;;;;;;;;;;5049070;28;20037;-70
2022/09/30 14:03:38;;;;;;;12.73;8.05;;;;;;;;;;5049051;28;20051;-69
2022/09/30 14:06:03;;;;;;;6.15;4.75;;;;;;;;;;5049261;28;20047;-70
2022/09/30 14:08:30;;;;;;;32.97;16.48;;;;;;;;;;5049970;28;20033;-68
2022/09/30 14:10:57;;;;;;;26.48;11.10;;;;;;;;;;5032064;28;20036;-67
2022/09/30 14:13:37;;;;;;;20.40;9.40;;;;;;;;;;5051610;28;20022;-69
2022/09/30 14:16:06;;;;;;;11.73;7.43;;;;;;;;;;5052966;28;20036;-69
2022/09/30 14:18:38;;;;;;;101.68;45.63;;;;;;;;;;5051548;28;20049;-68
2022/09/30 14:21:03;;;;;;;67.88;32.97;;;;;;;;;;5051498;28;20033;-69
2022/09/30 14:23:29;;;;;;;22.70;14.82;;;;;;;;;;5034439;28;20048;-68
2022/09/30 14:25:57;;;;;;;7.68;6.00;;;;;;;;;;5050850;28;20040;-69
2022/09/30 14:28:35;;;;;;;65.43;36.55;;;;;;;;;;5048733;28;20024;-68
2022/09/30 14:31:07;;;;;;;107.47;67.65;;;;;;;;;;5051413;28;20155;-67
2022/09/30 14:33:33;;;;;;;40.95;27.83;;;;;;;;;;5052203;28;20032;-69
2022/09/30 14:36:04;;;;;;;12.07;9.70;;;;;;;;;;5052423;28;20024;-68
2022/09/30 14:38:31;;;;;;;19.77;13.05;;;;;;;;;;5052758;28;20029;-68
2022/09/30 14:40:59;;;;;;;16.05;8.18;;;;;;;;;;5052300;28;20024;-68
2022/09/30 14:43:32;;;;;;;19.48;12.07;;;;;;;;;;5052105;28;20368;-69
2022/09/30 14:46:00;;;;;;;14.65;9.75;;;;;;;;;;5051733;28;20091;-68
2022/09/30 14:48:28;;;;;;;19.92;15.20;;;;;;;;;;5051407;28;20037;-68